sensor_id;sensor_type;location;lat;lon;timestamp;temperature;humidity
53695;DHT22;39588;51.124;7.190;2022-08-19T00:00:28;19.50;98.30
53695;DHT22;39588;51.124;7.190;2022-08-19T00:02:54;19.40;98.20
53695;DHT22;39588;51.124;7.190;2022-08-19T00:05:20;19.40;98.20
53695;DHT22;39588;51.124;7.190;2022-08-19T00:07:48;19.40;98.40
53695;DHT22;39588;51.124;7.190;2022-08-19T00:10:16;19.40;98.40
53695;DHT22;39588;51.124;7.190;2022-08-19T00:12:43;19.30;98.40
53695;DHT22;39588;51.124;7.190;2022-08-19T00:15:11;19.30;98.30
53695;DHT22;39588;51.124;7.190;2022-08-19T00:17:42;19.30;98.30
53695;DHT22;39588;51.124;7.190;2022-08-19T00:20:11;19.30;98.30
53695;DHT22;39588;51.124;7.190;2022-08-19T00:22:38;19.40;98.50
53695;DHT22;39588;51.124;7.190;2022-08-19T00:25:05;19.30;98.50
53695;DHT22;39588;51.124;7.190;2022-08-19T00:27:31;19.30;98.50
53695;DHT22;39588;51.124;7.190;2022-08-19T00:32:24;19.20;98.30
53695;DHT22;39588;51.124;7.190;2022-08-19T00:34:51;19.20;98.40
53695;DHT22;39588;51.124;7.190;2022-08-19T00:37:22;19.10;98.50
53695;DHT22;39588;51.124;7.190;2022-08-19T00:39:48;19.10;98.60
53695;DHT22;39588;51.124;7.190;2022-08-19T00:42:14;19.10;98.50
53695;DHT22;39588;51.124;7.190;2022-08-19T00:44:41;19.10;98.80
53695;DHT22;39588;51.124;7.190;2022-08-19T00:47:06;19.10;98.60
53695;DHT22;39588;51.124;7.190;2022-08-19T00:49:36;19.10;98.80
53695;DHT22;39588;51.124;7.190;2022-08-19T00:52:09;19.10;98.80
53695;DHT22;39588;51.124;7.190;2022-08-19T00:54:38;19.00;98.70
53695;DHT22;39588;51.124;7.190;2022-08-19T00:57:07;19.00;98.70
53695;DHT22;39588;51.124;7.190;2022-08-19T00:59:39;19.10;99.00
53695;DHT22;39588;51.124;7.190;2022-08-19T01:02:05;19.10;99.10
53695;DHT22;39588;51.124;7.190;2022-08-19T01:04:31;19.10;99.20
53695;DHT22;39588;51.124;7.190;2022-08-19T01:06:57;19.10;99.20
53695;DHT22;39588;51.124;7.190;2022-08-19T01:09:23;19.10;99.20
53695;DHT22;39588;51.124;7.190;2022-08-19T01:11:50;19.10;99.20
53695;DHT22;39588;51.124;7.190;2022-08-19T01:14:15;19.10;99.10
53695;DHT22;39588;51.124;7.190;2022-08-19T01:16:42;19.10;99.10
53695;DHT22;39588;51.124;7.190;2022-08-19T01:19:18;19.00;99.10
53695;DHT22;39588;51.124;7.190;2022-08-19T01:21:53;19.00;99.10
53695;DHT22;39588;51.124;7.190;2022-08-19T01:24:20;19.00;99.20
53695;DHT22;39588;51.124;7.190;2022-08-19T01:26:48;19.00;99.50
53695;DHT22;39588;51.124;7.190;2022-08-19T01:29:13;19.00;99.30
53695;DHT22;39588;51.124;7.190;2022-08-19T01:31:39;19.00;99.20
53695;DHT22;39588;51.124;7.190;2022-08-19T01:34:05;19.00;99.50
53695;DHT22;39588;51.124;7.190;2022-08-19T01:36:35;19.00;99.20
53695;DHT22;39588;51.124;7.190;2022-08-19T01:39:05;19.00;99.10
53695;DHT22;39588;51.124;7.190;2022-08-19T01:41:31;18.90;99.20
53695;DHT22;39588;51.124;7.190;2022-08-19T01:43:57;18.90;99.20
53695;DHT22;39588;51.124;7.190;2022-08-19T01:46:25;18.90;99.20
53695;DHT22;39588;51.124;7.190;2022-08-19T01:48:50;18.90;99.30
53695;DHT22;39588;51.124;7.190;2022-08-19T01:51:16;18.90;99.30
53695;DHT22;39588;51.124;7.190;2022-08-19T01:53:42;18.90;99.30
53695;DHT22;39588;51.124;7.190;2022-08-19T01:56:08;18.90;99.20
53695;DHT22;39588;51.124;7.190;2022-08-19T01:58:41;18.90;99.20
53695;DHT22;39588;51.124;7.190;2022-08-19T02:01:07;18.80;99.10
53695;DHT22;39588;51.124;7.190;2022-08-19T02:03:33;18.80;99.10
53695;DHT22;39588;51.124;7.190;2022-08-19T02:06:01;18.80;99.20
53695;DHT22;39588;51.124;7.190;2022-08-19T02:08:29;18.80;99.20
53695;DHT22;39588;51.124;7.190;2022-08-19T02:10:55;18.80;99.20
53695;DHT22;39588;51.124;7.190;2022-08-19T02:13:21;18.70;99.00
53695;DHT22;39588;51.124;7.190;2022-08-19T02:15:47;18.80;99.00
53695;DHT22;39588;51.124;7.190;2022-08-19T02:18:13;18.80;98.90
53695;DHT22;39588;51.124;7.190;2022-08-19T02:20:40;18.80;98.90
53695;DHT22;39588;51.124;7.190;2022-08-19T02:23:06;18.80;98.90
53695;DHT22;39588;51.124;7.190;2022-08-19T02:25:32;18.80;99.00
53695;DHT22;39588;51.124;7.190;2022-08-19T02:27:58;18.80;99.10
53695;DHT22;39588;51.124;7.190;2022-08-19T02:30:24;18.80;99.10
53695;DHT22;39588;51.124;7.190;2022-08-19T02:32:50;18.70;99.20
53695;DHT22;39588;51.124;7.190;2022-08-19T02:35:16;18.70;99.20
53695;DHT22;39588;51.124;7.190;2022-08-19T02:37:43;18.70;99.10
53695;DHT22;39588;51.124;7.190;2022-08-19T02:40:52;18.70;99.10
53695;DHT22;39588;51.124;7.190;2022-08-19T02:43:18;18.70;99.20
53695;DHT22;39588;51.124;7.190;2022-08-19T02:45:46;18.70;99.30
53695;DHT22;39588;51.124;7.190;2022-08-19T02:48:17;18.70;99.30
53695;DHT22;39588;51.124;7.190;2022-08-19T02:50:44;18.80;99.30
53695;DHT22;39588;51.124;7.190;2022-08-19T02:53:10;18.80;99.50
53695;DHT22;39588;51.124;7.190;2022-08-19T02:55:36;18.70;99.10
53695;DHT22;39588;51.124;7.190;2022-08-19T02:58:07;18.70;99.10
53695;DHT22;39588;51.124;7.190;2022-08-19T03:00:32;18.70;99.10
53695;DHT22;39588;51.124;7.190;2022-08-19T03:02:58;18.70;99.10
53695;DHT22;39588;51.124;7.190;2022-08-19T03:05:25;18.70;99.10
53695;DHT22;39588;51.124;7.190;2022-08-19T03:07:52;18.70;99.10
53695;DHT22;39588;51.124;7.190;2022-08-19T03:10:18;18.60;99.10
53695;DHT22;39588;51.124;7.190;2022-08-19T03:12:43;18.60;99.30
53695;DHT22;39588;51.124;7.190;2022-08-19T03:15:10;18.60;99.10
53695;DHT22;39588;51.124;7.190;2022-08-19T03:17:36;18.60;99.20
53695;DHT22;39588;51.124;7.190;2022-08-19T03:20:03;18.60;99.20
53695;DHT22;39588;51.124;7.190;2022-08-19T03:22:29;18.60;99.00
53695;DHT22;39588;51.124;7.190;2022-08-19T03:24:55;18.50;99.00
53695;DHT22;39588;51.124;7.190;2022-08-19T03:27:21;18.50;99.10
53695;DHT22;39588;51.124;7.190;2022-08-19T03:29:47;18.50;98.90
53695;DHT22;39588;51.124;7.190;2022-08-19T03:32:13;18.50;99.10
53695;DHT22;39588;51.124;7.190;2022-08-19T03:34:39;18.50;99.00
53695;DHT22;39588;51.124;7.190;2022-08-19T03:37:08;18.40;98.90
53695;DHT22;39588;51.124;7.190;2022-08-19T03:39:36;18.40;99.10
53695;DHT22;39588;51.124;7.190;2022-08-19T03:42:03;18.30;99.10
53695;DHT22;39588;51.124;7.190;2022-08-19T03:44:29;18.30;99.10
53695;DHT22;39588;51.124;7.190;2022-08-19T03:46:57;18.30;99.20
53695;DHT22;39588;51.124;7.190;2022-08-19T03:49:25;18.30;99.10
53695;DHT22;39588;51.124;7.190;2022-08-19T03:51:53;18.30;99.10
53695;DHT22;39588;51.124;7.190;2022-08-19T03:54:21;18.20;99.10
53695;DHT22;39588;51.124;7.190;2022-08-19T03:56:50;18.10;99.10
53695;DHT22;39588;51.124;7.190;2022-08-19T04:01:47;18.00;99.20
53695;DHT22;39588;51.124;7.190;2022-08-19T04:09:08;18.00;99.40
53695;DHT22;39588;51.124;7.190;2022-08-19T04:11:38;17.90;99.40
53695;DHT22;39588;51.124;7.190;2022-08-19T04:14:08;18.00;99.40
53695;DHT22;39588;51.124;7.190;2022-08-19T04:16:34;18.00;99.40
53695;DHT22;39588;51.124;7.190;2022-08-19T04:19:01;18.10;99.40
53695;DHT22;39588;51.124;7.190;2022-08-19T04:21:27;18.20;99.40
53695;DHT22;39588;51.124;7.190;2022-08-19T04:26:24;18.40;99.20
53695;DHT22;39588;51.124;7.190;2022-08-19T04:28:51;18.40;99.10
53695;DHT22;39588;51.124;7.190;2022-08-19T04:36:19;18.30;99.30
53695;DHT22;39588;51.124;7.190;2022-08-19T04:38:46;18.30;99.40
53695;DHT22;39588;51.124;7.190;2022-08-19T04:41:12;18.20;99.40
53695;DHT22;39588;51.124;7.190;2022-08-19T04:43:56;18.30;99.50
53695;DHT22;39588;51.124;7.190;2022-08-19T04:46:21;18.30;99.40
53695;DHT22;39588;51.124;7.190;2022-08-19T04:48:47;18.30;99.40
53695;DHT22;39588;51.124;7.190;2022-08-19T04:51:13;18.30;99.40
53695;DHT22;39588;51.124;7.190;2022-08-19T04:53:40;18.40;99.40
53695;DHT22;39588;51.124;7.190;2022-08-19T04:56:16;18.40;99.40
53695;DHT22;39588;51.124;7.190;2022-08-19T04:58:44;18.40;99.30
53695;DHT22;39588;51.124;7.190;2022-08-19T05:01:21;18.30;99.30
53695;DHT22;39588;51.124;7.190;2022-08-19T05:03:48;18.40;99.20
53695;DHT22;39588;51.124;7.190;2022-08-19T05:06:15;18.40;99.30
53695;DHT22;39588;51.124;7.190;2022-08-19T05:08:42;18.50;99.10
53695;DHT22;39588;51.124;7.190;2022-08-19T05:11:23;18.70;99.10
53695;DHT22;39588;51.124;7.190;2022-08-19T05:13:50;18.80;99.10
53695;DHT22;39588;51.124;7.190;2022-08-19T05:16:18;18.90;99.10
53695;DHT22;39588;51.124;7.190;2022-08-19T05:18:44;18.90;99.10
53695;DHT22;39588;51.124;7.190;2022-08-19T05:21:29;18.90;99.00
53695;DHT22;39588;51.124;7.190;2022-08-19T05:24:13;18.80;99.00
53695;DHT22;39588;51.124;7.190;2022-08-19T05:26:43;18.70;99.00
53695;DHT22;39588;51.124;7.190;2022-08-19T05:29:12;18.70;99.20
53695;DHT22;39588;51.124;7.190;2022-08-19T05:31:38;18.70;99.20
53695;DHT22;39588;51.124;7.190;2022-08-19T05:34:04;18.60;99.20
53695;DHT22;39588;51.124;7.190;2022-08-19T05:36:35;18.60;99.30
53695;DHT22;39588;51.124;7.190;2022-08-19T05:39:02;18.60;99.30
53695;DHT22;39588;51.124;7.190;2022-08-19T05:41:29;18.60;99.40
53695;DHT22;39588;51.124;7.190;2022-08-19T05:43:57;18.60;99.40
53695;DHT22;39588;51.124;7.190;2022-08-19T05:46:23;18.50;99.30
53695;DHT22;39588;51.124;7.190;2022-08-19T05:48:48;18.50;99.50
53695;DHT22;39588;51.124;7.190;2022-08-19T05:51:15;18.50;99.50
53695;DHT22;39588;51.124;7.190;2022-08-19T05:53:42;18.60;99.50
53695;DHT22;39588;51.124;7.190;2022-08-19T05:56:11;18.60;99.10
53695;DHT22;39588;51.124;7.190;2022-08-19T05:58:38;18.60;99.30
53695;DHT22;39588;51.124;7.190;2022-08-19T06:01:09;18.60;99.20
53695;DHT22;39588;51.124;7.190;2022-08-19T06:03:36;18.70;99.20
53695;DHT22;39588;51.124;7.190;2022-08-19T06:06:04;18.80;99.00
53695;DHT22;39588;51.124;7.190;2022-08-19T06:08:31;18.80;99.10
53695;DHT22;39588;51.124;7.190;2022-08-19T06:10:57;18.90;99.00
53695;DHT22;39588;51.124;7.190;2022-08-19T06:13:23;18.90;99.00
53695;DHT22;39588;51.124;7.190;2022-08-19T06:15:49;19.00;98.90
53695;DHT22;39588;51.124;7.190;2022-08-19T06:18:15;19.00;98.90
53695;DHT22;39588;51.124;7.190;2022-08-19T06:20:42;19.00;99.00
53695;DHT22;39588;51.124;7.190;2022-08-19T06:23:08;19.10;98.90
53695;DHT22;39588;51.124;7.190;2022-08-19T06:25:34;19.10;98.80
53695;DHT22;39588;51.124;7.190;2022-08-19T06:28:00;19.30;99.00
53695;DHT22;39588;51.124;7.190;2022-08-19T06:30:26;19.30;99.00
53695;DHT22;39588;51.124;7.190;2022-08-19T06:32:52;19.40;98.80
53695;DHT22;39588;51.124;7.190;2022-08-19T06:35:17;19.40;99.00
53695;DHT22;39588;51.124;7.190;2022-08-19T06:37:43;19.40;99.00
53695;DHT22;39588;51.124;7.190;2022-08-19T06:40:10;19.50;99.00
53695;DHT22;39588;51.124;7.190;2022-08-19T06:42:36;19.50;98.80
53695;DHT22;39588;51.124;7.190;2022-08-19T06:45:04;19.50;98.80
53695;DHT22;39588;51.124;7.190;2022-08-19T06:47:31;19.50;98.90
53695;DHT22;39588;51.124;7.190;2022-08-19T06:49:58;19.60;99.00
53695;DHT22;39588;51.124;7.190;2022-08-19T06:52:30;19.70;98.90
53695;DHT22;39588;51.124;7.190;2022-08-19T06:54:56;19.80;98.70
53695;DHT22;39588;51.124;7.190;2022-08-19T06:57:23;19.90;98.80
53695;DHT22;39588;51.124;7.190;2022-08-19T06:59:49;20.00;98.80
53695;DHT22;39588;51.124;7.190;2022-08-19T07:02:15;20.10;98.70
53695;DHT22;39588;51.124;7.190;2022-08-19T07:04:40;20.30;98.70
53695;DHT22;39588;51.124;7.190;2022-08-19T07:07:11;20.40;98.60
53695;DHT22;39588;51.124;7.190;2022-08-19T07:09:40;20.40;98.50
53695;DHT22;39588;51.124;7.190;2022-08-19T07:12:09;20.50;98.60
53695;DHT22;39588;51.124;7.190;2022-08-19T07:14:36;20.50;98.60
53695;DHT22;39588;51.124;7.190;2022-08-19T07:17:06;20.50;98.60
53695;DHT22;39588;51.124;7.190;2022-08-19T07:19:33;20.50;98.70
53695;DHT22;39588;51.124;7.190;2022-08-19T07:22:02;20.40;98.80
53695;DHT22;39588;51.124;7.190;2022-08-19T07:24:28;20.50;98.90
53695;DHT22;39588;51.124;7.190;2022-08-19T07:26:56;20.50;98.70
53695;DHT22;39588;51.124;7.190;2022-08-19T07:29:26;20.70;98.60
53695;DHT22;39588;51.124;7.190;2022-08-19T07:31:54;20.80;98.60
53695;DHT22;39588;51.124;7.190;2022-08-19T07:34:25;21.00;98.70
53695;DHT22;39588;51.124;7.190;2022-08-19T07:36:51;21.10;98.60
53695;DHT22;39588;51.124;7.190;2022-08-19T07:39:22;21.30;98.60
53695;DHT22;39588;51.124;7.190;2022-08-19T07:41:48;21.40;98.20
53695;DHT22;39588;51.124;7.190;2022-08-19T07:44:15;21.60;98.10
53695;DHT22;39588;51.124;7.190;2022-08-19T07:46:46;21.60;98.00
53695;DHT22;39588;51.124;7.190;2022-08-19T07:49:13;21.80;97.90
53695;DHT22;39588;51.124;7.190;2022-08-19T07:51:48;21.80;97.90
53695;DHT22;39588;51.124;7.190;2022-08-19T07:54:15;21.80;97.90
53695;DHT22;39588;51.124;7.190;2022-08-19T07:56:40;21.90;97.90
53695;DHT22;39588;51.124;7.190;2022-08-19T07:59:06;22.00;98.00
53695;DHT22;39588;51.124;7.190;2022-08-19T08:01:33;22.10;98.00
53695;DHT22;39588;51.124;7.190;2022-08-19T08:03:59;22.40;97.80
53695;DHT22;39588;51.124;7.190;2022-08-19T08:06:43;22.60;97.60
53695;DHT22;39588;51.124;7.190;2022-08-19T08:09:33;22.60;97.40
53695;DHT22;39588;51.124;7.190;2022-08-19T08:12:05;22.50;97.20
53695;DHT22;39588;51.124;7.190;2022-08-19T08:14:44;22.40;97.30
53695;DHT22;39588;51.124;7.190;2022-08-19T08:17:11;22.30;97.40
53695;DHT22;39588;51.124;7.190;2022-08-19T08:19:38;22.30;97.50
53695;DHT22;39588;51.124;7.190;2022-08-19T08:22:07;22.40;97.60
53695;DHT22;39588;51.124;7.190;2022-08-19T08:24:33;22.60;97.60
53695;DHT22;39588;51.124;7.190;2022-08-19T08:27:01;22.70;97.40
53695;DHT22;39588;51.124;7.190;2022-08-19T08:29:28;22.70;97.20
53695;DHT22;39588;51.124;7.190;2022-08-19T08:31:55;22.70;97.40
53695;DHT22;39588;51.124;7.190;2022-08-19T08:34:20;22.70;97.30
53695;DHT22;39588;51.124;7.190;2022-08-19T08:36:46;22.60;97.50
53695;DHT22;39588;51.124;7.190;2022-08-19T08:39:15;22.80;97.20
53695;DHT22;39588;51.124;7.190;2022-08-19T08:42:10;22.90;97.40
53695;DHT22;39588;51.124;7.190;2022-08-19T08:45:13;23.10;97.10
53695;DHT22;39588;51.124;7.190;2022-08-19T08:47:44;23.30;97.00
53695;DHT22;39588;51.124;7.190;2022-08-19T08:50:19;23.50;96.90
53695;DHT22;39588;51.124;7.190;2022-08-19T08:52:52;23.70;96.90
53695;DHT22;39588;51.124;7.190;2022-08-19T08:55:22;23.80;96.60
53695;DHT22;39588;51.124;7.190;2022-08-19T09:00:38;23.60;96.20
53695;DHT22;39588;51.124;7.190;2022-08-19T09:03:09;23.40;96.50
53695;DHT22;39588;51.124;7.190;2022-08-19T09:05:57;23.30;96.80
53695;DHT22;39588;51.124;7.190;2022-08-19T09:09:01;23.50;96.70
53695;DHT22;39588;51.124;7.190;2022-08-19T09:16:41;23.70;96.30
53695;DHT22;39588;51.124;7.190;2022-08-19T09:19:07;23.80;96.20
53695;DHT22;39588;51.124;7.190;2022-08-19T09:21:33;23.90;96.00
53695;DHT22;39588;51.124;7.190;2022-08-19T09:24:01;23.70;95.80
53695;DHT22;39588;51.124;7.190;2022-08-19T09:26:27;23.60;95.80
53695;DHT22;39588;51.124;7.190;2022-08-19T09:28:53;23.30;95.90
53695;DHT22;39588;51.124;7.190;2022-08-19T09:31:25;23.20;96.20
53695;DHT22;39588;51.124;7.190;2022-08-19T09:33:52;23.30;96.60
53695;DHT22;39588;51.124;7.190;2022-08-19T09:36:20;23.50;96.20
53695;DHT22;39588;51.124;7.190;2022-08-19T09:38:48;23.60;96.10
53695;DHT22;39588;51.124;7.190;2022-08-19T09:41:18;23.80;96.10
53695;DHT22;39588;51.124;7.190;2022-08-19T09:43:46;23.90;95.40
53695;DHT22;39588;51.124;7.190;2022-08-19T09:46:12;24.10;95.60
53695;DHT22;39588;51.124;7.190;2022-08-19T09:48:39;24.40;95.50
53695;DHT22;39588;51.124;7.190;2022-08-19T09:51:08;24.80;95.40
53695;DHT22;39588;51.124;7.190;2022-08-19T09:53:38;25.10;93.90
53695;DHT22;39588;51.124;7.190;2022-08-19T09:56:05;25.20;93.70
53695;DHT22;39588;51.124;7.190;2022-08-19T09:58:35;25.50;94.10
53695;DHT22;39588;51.124;7.190;2022-08-19T10:01:02;25.90;93.60
53695;DHT22;39588;51.124;7.190;2022-08-19T10:03:29;26.20;93.30
53695;DHT22;39588;51.124;7.190;2022-08-19T10:05:56;26.50;92.80
53695;DHT22;39588;51.124;7.190;2022-08-19T10:08:25;26.80;92.40
53695;DHT22;39588;51.124;7.190;2022-08-19T10:10:52;26.70;91.70
53695;DHT22;39588;51.124;7.190;2022-08-19T10:13:19;26.50;91.40
53695;DHT22;39588;51.124;7.190;2022-08-19T10:15:49;26.70;91.20
53695;DHT22;39588;51.124;7.190;2022-08-19T10:18:17;26.60;90.80
53695;DHT22;39588;51.124;7.190;2022-08-19T10:20:44;26.40;90.70
53695;DHT22;39588;51.124;7.190;2022-08-19T10:23:11;26.10;91.20
53695;DHT22;39588;51.124;7.190;2022-08-19T10:25:37;25.80;91.80
53695;DHT22;39588;51.124;7.190;2022-08-19T10:28:03;25.50;92.00
53695;DHT22;39588;51.124;7.190;2022-08-19T10:30:29;25.20;92.50
53695;DHT22;39588;51.124;7.190;2022-08-19T10:32:55;25.10;92.10
53695;DHT22;39588;51.124;7.190;2022-08-19T10:35:21;25.10;92.00
53695;DHT22;39588;51.124;7.190;2022-08-19T10:37:46;25.30;92.20
53695;DHT22;39588;51.124;7.190;2022-08-19T10:40:12;25.60;91.40
53695;DHT22;39588;51.124;7.190;2022-08-19T10:42:38;25.40;91.20
53695;DHT22;39588;51.124;7.190;2022-08-19T10:45:09;25.40;91.70
53695;DHT22;39588;51.124;7.190;2022-08-19T10:47:35;26.00;91.70
53695;DHT22;39588;51.124;7.190;2022-08-19T10:50:01;26.40;90.70
53695;DHT22;39588;51.124;7.190;2022-08-19T10:52:48;26.70;87.80
53695;DHT22;39588;51.124;7.190;2022-08-19T10:55:14;26.10;87.90
53695;DHT22;39588;51.124;7.190;2022-08-19T10:57:58;26.10;88.60
53695;DHT22;39588;51.124;7.190;2022-08-19T11:00:24;25.90;87.70
53695;DHT22;39588;51.124;7.190;2022-08-19T11:02:50;25.80;88.40
53695;DHT22;39588;51.124;7.190;2022-08-19T11:05:17;26.00;88.30
53695;DHT22;39588;51.124;7.190;2022-08-19T11:07:43;26.10;87.10
53695;DHT22;39588;51.124;7.190;2022-08-19T11:10:12;26.10;86.60
53695;DHT22;39588;51.124;7.190;2022-08-19T11:12:39;26.00;85.50
53695;DHT22;39588;51.124;7.190;2022-08-19T11:15:09;26.00;85.80
53695;DHT22;39588;51.124;7.190;2022-08-19T11:17:40;26.20;84.00
53695;DHT22;39588;51.124;7.190;2022-08-19T11:20:09;26.00;84.40
53695;DHT22;39588;51.124;7.190;2022-08-19T11:22:35;26.00;87.00
53695;DHT22;39588;51.124;7.190;2022-08-19T11:25:00;26.10;84.50
53695;DHT22;39588;51.124;7.190;2022-08-19T11:27:26;26.00;84.60
53695;DHT22;39588;51.124;7.190;2022-08-19T11:29:53;26.10;84.90
53695;DHT22;39588;51.124;7.190;2022-08-19T11:32:19;26.40;83.70
53695;DHT22;39588;51.124;7.190;2022-08-19T11:34:45;26.40;84.10
53695;DHT22;39588;51.124;7.190;2022-08-19T11:37:10;26.20;83.30
53695;DHT22;39588;51.124;7.190;2022-08-19T11:39:37;25.90;83.30
53695;DHT22;39588;51.124;7.190;2022-08-19T11:42:04;25.80;84.50
53695;DHT22;39588;51.124;7.190;2022-08-19T11:44:50;25.60;85.20
53695;DHT22;39588;51.124;7.190;2022-08-19T11:47:16;25.50;85.60
53695;DHT22;39588;51.124;7.190;2022-08-19T11:49:42;25.60;84.00
53695;DHT22;39588;51.124;7.190;2022-08-19T11:52:08;25.70;84.00
53695;DHT22;39588;51.124;7.190;2022-08-19T11:54:34;26.00;84.70
53695;DHT22;39588;51.124;7.190;2022-08-19T11:57:02;26.00;82.30
53695;DHT22;39588;51.124;7.190;2022-08-19T11:59:28;25.70;83.10
53695;DHT22;39588;51.124;7.190;2022-08-19T12:01:54;25.50;82.20
53695;DHT22;39588;51.124;7.190;2022-08-19T12:04:21;25.20;82.10
53695;DHT22;39588;51.124;7.190;2022-08-19T12:06:47;25.20;82.30
53695;DHT22;39588;51.124;7.190;2022-08-19T12:09:12;25.30;83.00
53695;DHT22;39588;51.124;7.190;2022-08-19T12:11:39;25.50;81.80
53695;DHT22;39588;51.124;7.190;2022-08-19T12:14:08;25.80;80.80
53695;DHT22;39588;51.124;7.190;2022-08-19T12:16:34;26.00;81.60
53695;DHT22;39588;51.124;7.190;2022-08-19T12:19:01;26.10;80.80
53695;DHT22;39588;51.124;7.190;2022-08-19T12:21:31;26.10;80.00
53695;DHT22;39588;51.124;7.190;2022-08-19T12:23:59;25.90;80.00
53695;DHT22;39588;51.124;7.190;2022-08-19T12:26:26;25.50;80.20
53695;DHT22;39588;51.124;7.190;2022-08-19T12:28:52;25.20;80.50
53695;DHT22;39588;51.124;7.190;2022-08-19T12:31:18;25.10;82.30
53695;DHT22;39588;51.124;7.190;2022-08-19T12:33:45;25.20;80.20
53695;DHT22;39588;51.124;7.190;2022-08-19T12:36:13;25.20;77.90
53695;DHT22;39588;51.124;7.190;2022-08-19T12:38:40;25.20;78.70
53695;DHT22;39588;51.124;7.190;2022-08-19T12:41:10;25.50;79.60
53695;DHT22;39588;51.124;7.190;2022-08-19T12:43:36;25.90;78.90
53695;DHT22;39588;51.124;7.190;2022-08-19T12:46:04;26.20;79.50
53695;DHT22;39588;51.124;7.190;2022-08-19T12:48:31;26.50;78.50
53695;DHT22;39588;51.124;7.190;2022-08-19T12:50:56;26.60;77.70
53695;DHT22;39588;51.124;7.190;2022-08-19T12:53:23;26.70;76.40
53695;DHT22;39588;51.124;7.190;2022-08-19T12:55:55;26.70;74.70
53695;DHT22;39588;51.124;7.190;2022-08-19T12:58:22;26.60;74.20
53695;DHT22;39588;51.124;7.190;2022-08-19T13:00:48;26.60;71.10
53695;DHT22;39588;51.124;7.190;2022-08-19T13:03:14;26.40;72.10
53695;DHT22;39588;51.124;7.190;2022-08-19T13:05:41;26.20;70.50
53695;DHT22;39588;51.124;7.190;2022-08-19T13:08:07;26.00;70.90
53695;DHT22;39588;51.124;7.190;2022-08-19T13:10:35;25.90;70.80
53695;DHT22;39588;51.124;7.190;2022-08-19T13:13:02;26.00;70.80
53695;DHT22;39588;51.124;7.190;2022-08-19T13:15:29;26.00;70.60
53695;DHT22;39588;51.124;7.190;2022-08-19T13:17:58;26.10;71.40
53695;DHT22;39588;51.124;7.190;2022-08-19T13:20:24;26.20;71.30
53695;DHT22;39588;51.124;7.190;2022-08-19T13:22:50;26.30;72.40
53695;DHT22;39588;51.124;7.190;2022-08-19T13:25:17;26.40;72.30
53695;DHT22;39588;51.124;7.190;2022-08-19T13:27:45;26.40;71.20
53695;DHT22;39588;51.124;7.190;2022-08-19T13:30:13;26.40;70.80
53695;DHT22;39588;51.124;7.190;2022-08-19T13:32:58;26.30;71.80
53695;DHT22;39588;51.124;7.190;2022-08-19T13:35:38;26.30;70.50
53695;DHT22;39588;51.124;7.190;2022-08-19T13:38:03;26.20;72.20
53695;DHT22;39588;51.124;7.190;2022-08-19T13:40:31;26.20;72.20
53695;DHT22;39588;51.124;7.190;2022-08-19T13:42:59;26.20;72.60
53695;DHT22;39588;51.124;7.190;2022-08-19T13:45:26;26.20;70.40
53695;DHT22;39588;51.124;7.190;2022-08-19T13:47:54;26.00;71.20
53695;DHT22;39588;51.124;7.190;2022-08-19T13:50:24;26.00;70.70
53695;DHT22;39588;51.124;7.190;2022-08-19T13:52:54;25.90;70.20
53695;DHT22;39588;51.124;7.190;2022-08-19T13:55:21;25.90;70.70
53695;DHT22;39588;51.124;7.190;2022-08-19T13:57:51;25.70;70.10
53695;DHT22;39588;51.124;7.190;2022-08-19T14:00:17;25.60;70.80
53695;DHT22;39588;51.124;7.190;2022-08-19T14:02:45;25.50;70.60
53695;DHT22;39588;51.124;7.190;2022-08-19T14:05:13;25.60;70.90
53695;DHT22;39588;51.124;7.190;2022-08-19T14:07:38;25.80;71.50
53695;DHT22;39588;51.124;7.190;2022-08-19T14:10:06;25.90;70.60
53695;DHT22;39588;51.124;7.190;2022-08-19T14:12:33;25.90;69.90
53695;DHT22;39588;51.124;7.190;2022-08-19T14:14:59;25.90;68.40
53695;DHT22;39588;51.124;7.190;2022-08-19T14:17:25;25.80;68.90
53695;DHT22;39588;51.124;7.190;2022-08-19T14:19:58;26.00;70.10
53695;DHT22;39588;51.124;7.190;2022-08-19T14:22:25;26.10;69.80
53695;DHT22;39588;51.124;7.190;2022-08-19T14:24:51;26.10;69.50
53695;DHT22;39588;51.124;7.190;2022-08-19T14:27:16;26.20;69.50
53695;DHT22;39588;51.124;7.190;2022-08-19T14:29:42;26.30;68.60
53695;DHT22;39588;51.124;7.190;2022-08-19T14:32:08;26.30;68.40
53695;DHT22;39588;51.124;7.190;2022-08-19T14:34:33;26.30;67.10
53695;DHT22;39588;51.124;7.190;2022-08-19T14:37:02;26.20;66.90
53695;DHT22;39588;51.124;7.190;2022-08-19T14:39:28;26.20;67.50
53695;DHT22;39588;51.124;7.190;2022-08-19T14:41:54;26.20;66.40
53695;DHT22;39588;51.124;7.190;2022-08-19T14:44:19;26.10;67.60
53695;DHT22;39588;51.124;7.190;2022-08-19T14:46:45;26.00;67.10
53695;DHT22;39588;51.124;7.190;2022-08-19T14:49:11;26.00;66.70
53695;DHT22;39588;51.124;7.190;2022-08-19T14:51:37;26.00;66.90
53695;DHT22;39588;51.124;7.190;2022-08-19T14:54:03;26.20;67.50
53695;DHT22;39588;51.124;7.190;2022-08-19T14:56:29;26.40;66.10
53695;DHT22;39588;51.124;7.190;2022-08-19T14:58:56;26.50;66.20
53695;DHT22;39588;51.124;7.190;2022-08-19T15:01:25;26.50;66.20
53695;DHT22;39588;51.124;7.190;2022-08-19T15:03:51;26.30;65.40
53695;DHT22;39588;51.124;7.190;2022-08-19T15:06:21;26.20;66.00
53695;DHT22;39588;51.124;7.190;2022-08-19T15:08:47;26.10;66.40
53695;DHT22;39588;51.124;7.190;2022-08-19T15:11:16;26.20;66.70
53695;DHT22;39588;51.124;7.190;2022-08-19T15:13:44;26.30;65.70
53695;DHT22;39588;51.124;7.190;2022-08-19T15:16:12;26.40;65.10
53695;DHT22;39588;51.124;7.190;2022-08-19T15:18:40;26.30;64.20
53695;DHT22;39588;51.124;7.190;2022-08-19T15:21:09;26.10;64.60
53695;DHT22;39588;51.124;7.190;2022-08-19T15:23:37;26.00;64.90
53695;DHT22;39588;51.124;7.190;2022-08-19T15:26:03;25.80;64.40
53695;DHT22;39588;51.124;7.190;2022-08-19T15:28:33;25.60;65.20
53695;DHT22;39588;51.124;7.190;2022-08-19T15:30:58;25.60;65.20
53695;DHT22;39588;51.124;7.190;2022-08-19T15:33:24;25.60;65.10
53695;DHT22;39588;51.124;7.190;2022-08-19T15:35:51;25.70;64.60
53695;DHT22;39588;51.124;7.190;2022-08-19T15:38:19;25.90;64.50
53695;DHT22;39588;51.124;7.190;2022-08-19T15:40:48;25.80;64.50
53695;DHT22;39588;51.124;7.190;2022-08-19T15:43:17;25.70;64.50
53695;DHT22;39588;51.124;7.190;2022-08-19T15:45:44;25.80;65.20
53695;DHT22;39588;51.124;7.190;2022-08-19T15:48:10;25.90;65.20
53695;DHT22;39588;51.124;7.190;2022-08-19T15:50:36;25.80;64.90
53695;DHT22;39588;51.124;7.190;2022-08-19T15:53:07;25.70;65.20
53695;DHT22;39588;51.124;7.190;2022-08-19T15:55:35;25.50;65.00
53695;DHT22;39588;51.124;7.190;2022-08-19T15:58:07;25.50;65.30
53695;DHT22;39588;51.124;7.190;2022-08-19T16:00:52;25.40;65.30